sensor_id;sensor_type;location;lat;lon;timestamp;temperature;humidity
43920;DHT22;29578;51.946;5.874;2023-04-15T00:00:25;9.00;68.00
43920;DHT22;29578;51.946;5.874;2023-04-15T00:02:50;9.10;68.10
43920;DHT22;29578;51.946;5.874;2023-04-15T00:05:17;9.10;68.20
43920;DHT22;29578;51.946;5.874;2023-04-15T00:07:43;9.00;68.20
43920;DHT22;29578;51.946;5.874;2023-04-15T00:10:10;9.00;68.20
43920;DHT22;29578;51.946;5.874;2023-04-15T00:12:35;8.90;68.30
43920;DHT22;29578;51.946;5.874;2023-04-15T00:15:01;8.90;68.40
43920;DHT22;29578;51.946;5.874;2023-04-15T00:17:27;8.90;68.40
43920;DHT22;29578;51.946;5.874;2023-04-15T00:19:52;8.90;68.40
43920;DHT22;29578;51.946;5.874;2023-04-15T00:22:19;8.90;68.40
43920;DHT22;29578;51.946;5.874;2023-04-15T00:24:44;8.90;68.40
43920;DHT22;29578;51.946;5.874;2023-04-15T00:27:10;9.00;68.50
43920;DHT22;29578;51.946;5.874;2023-04-15T00:29:35;8.90;68.50
43920;DHT22;29578;51.946;5.874;2023-04-15T00:32:01;8.90;68.50
43920;DHT22;29578;51.946;5.874;2023-04-15T00:34:27;9.00;68.50
43920;DHT22;29578;51.946;5.874;2023-04-15T00:36:53;8.90;68.50
43920;DHT22;29578;51.946;5.874;2023-04-15T00:39:19;8.90;68.50
43920;DHT22;29578;51.946;5.874;2023-04-15T00:41:45;8.90;68.60
43920;DHT22;29578;51.946;5.874;2023-04-15T00:44:10;8.90;68.60
43920;DHT22;29578;51.946;5.874;2023-04-15T00:46:38;8.90;68.50
43920;DHT22;29578;51.946;5.874;2023-04-15T00:49:05;8.90;68.50
43920;DHT22;29578;51.946;5.874;2023-04-15T00:51:32;8.90;68.50
43920;DHT22;29578;51.946;5.874;2023-04-15T00:53:59;8.90;68.60
43920;DHT22;29578;51.946;5.874;2023-04-15T00:56:26;8.90;68.60
43920;DHT22;29578;51.946;5.874;2023-04-15T00:58:53;8.80;68.70
43920;DHT22;29578;51.946;5.874;2023-04-15T01:01:20;8.80;68.70
43920;DHT22;29578;51.946;5.874;2023-04-15T01:03:48;8.80;68.90
43920;DHT22;29578;51.946;5.874;2023-04-15T01:06:14;8.70;68.90
43920;DHT22;29578;51.946;5.874;2023-04-15T01:08:41;8.70;69.00
43920;DHT22;29578;51.946;5.874;2023-04-15T01:11:07;8.70;69.10
43920;DHT22;29578;51.946;5.874;2023-04-15T01:13:33;8.60;69.20
43920;DHT22;29578;51.946;5.874;2023-04-15T01:16:01;8.60;69.20
43920;DHT22;29578;51.946;5.874;2023-04-15T01:18:28;8.60;69.20
43920;DHT22;29578;51.946;5.874;2023-04-15T01:20:54;8.60;69.40
43920;DHT22;29578;51.946;5.874;2023-04-15T01:23:20;8.50;69.40
43920;DHT22;29578;51.946;5.874;2023-04-15T01:25:48;8.60;69.50
43920;DHT22;29578;51.946;5.874;2023-04-15T01:28:14;8.50;69.50
43920;DHT22;29578;51.946;5.874;2023-04-15T01:30:40;8.60;69.50
43920;DHT22;29578;51.946;5.874;2023-04-15T01:33:06;8.60;69.60
43920;DHT22;29578;51.946;5.874;2023-04-15T01:35:32;8.60;69.60
43920;DHT22;29578;51.946;5.874;2023-04-15T01:38:05;8.60;69.60
43920;DHT22;29578;51.946;5.874;2023-04-15T01:40:32;8.60;69.70
43920;DHT22;29578;51.946;5.874;2023-04-15T01:42:59;8.50;69.60
43920;DHT22;29578;51.946;5.874;2023-04-15T01:45:24;8.50;69.70
43920;DHT22;29578;51.946;5.874;2023-04-15T01:47:50;8.40;69.70
43920;DHT22;29578;51.946;5.874;2023-04-15T01:50:16;8.40;69.80
43920;DHT22;29578;51.946;5.874;2023-04-15T01:52:42;8.40;69.90
43920;DHT22;29578;51.946;5.874;2023-04-15T01:55:08;8.40;70.00
43920;DHT22;29578;51.946;5.874;2023-04-15T01:57:34;8.40;70.00
43920;DHT22;29578;51.946;5.874;2023-04-15T01:59:59;8.40;70.10
43920;DHT22;29578;51.946;5.874;2023-04-15T02:02:25;8.40;70.10
43920;DHT22;29578;51.946;5.874;2023-04-15T02:04:51;8.40;70.20
43920;DHT22;29578;51.946;5.874;2023-04-15T02:07:19;8.40;70.20
43920;DHT22;29578;51.946;5.874;2023-04-15T02:09:44;8.50;70.20
43920;DHT22;29578;51.946;5.874;2023-04-15T02:12:10;8.40;70.10
43920;DHT22;29578;51.946;5.874;2023-04-15T02:14:36;8.50;70.20
43920;DHT22;29578;51.946;5.874;2023-04-15T02:17:02;8.60;70.10
43920;DHT22;29578;51.946;5.874;2023-04-15T02:19:32;8.50;70.10
43920;DHT22;29578;51.946;5.874;2023-04-15T02:21:58;8.50;70.10
43920;DHT22;29578;51.946;5.874;2023-04-15T02:24:26;8.60;70.10
43920;DHT22;29578;51.946;5.874;2023-04-15T02:26:52;8.60;70.10
43920;DHT22;29578;51.946;5.874;2023-04-15T02:29:17;8.60;70.10
43920;DHT22;29578;51.946;5.874;2023-04-15T02:31:43;8.60;70.10
43920;DHT22;29578;51.946;5.874;2023-04-15T02:34:10;8.60;70.10
43920;DHT22;29578;51.946;5.874;2023-04-15T02:36:35;8.60;70.10
43920;DHT22;29578;51.946;5.874;2023-04-15T02:39:01;8.50;70.00
43920;DHT22;29578;51.946;5.874;2023-04-15T02:41:28;8.60;70.10
43920;DHT22;29578;51.946;5.874;2023-04-15T02:43:54;8.60;70.30
43920;DHT22;29578;51.946;5.874;2023-04-15T02:46:21;8.50;70.30
43920;DHT22;29578;51.946;5.874;2023-04-15T02:48:48;8.50;70.50
43920;DHT22;29578;51.946;5.874;2023-04-15T02:51:17;8.50;70.70
43920;DHT22;29578;51.946;5.874;2023-04-15T02:53:44;8.40;70.70
43920;DHT22;29578;51.946;5.874;2023-04-15T02:56:10;8.40;70.80
43920;DHT22;29578;51.946;5.874;2023-04-15T02:58:38;8.40;70.90
43920;DHT22;29578;51.946;5.874;2023-04-15T03:01:04;8.40;70.90
43920;DHT22;29578;51.946;5.874;2023-04-15T03:03:30;8.40;71.00
43920;DHT22;29578;51.946;5.874;2023-04-15T03:05:55;8.40;71.10
43920;DHT22;29578;51.946;5.874;2023-04-15T03:08:21;8.30;71.10
43920;DHT22;29578;51.946;5.874;2023-04-15T03:10:47;8.30;71.20
43920;DHT22;29578;51.946;5.874;2023-04-15T03:13:13;8.30;71.20
43920;DHT22;29578;51.946;5.874;2023-04-15T03:15:38;8.30;71.30
43920;DHT22;29578;51.946;5.874;2023-04-15T03:18:04;8.30;71.30
43920;DHT22;29578;51.946;5.874;2023-04-15T03:20:30;8.20;71.40
43920;DHT22;29578;51.946;5.874;2023-04-15T03:22:55;8.30;71.50
43920;DHT22;29578;51.946;5.874;2023-04-15T03:25:21;8.20;71.60
43920;DHT22;29578;51.946;5.874;2023-04-15T03:27:47;8.20;71.60
43920;DHT22;29578;51.946;5.874;2023-04-15T03:30:12;8.20;71.70
43920;DHT22;29578;51.946;5.874;2023-04-15T03:32:39;8.10;71.80
43920;DHT22;29578;51.946;5.874;2023-04-15T03:35:04;8.20;71.90
43920;DHT22;29578;51.946;5.874;2023-04-15T03:37:31;8.10;71.90
43920;DHT22;29578;51.946;5.874;2023-04-15T03:39:56;8.10;72.00
43920;DHT22;29578;51.946;5.874;2023-04-15T03:42:22;8.10;72.00
43920;DHT22;29578;51.946;5.874;2023-04-15T03:44:48;8.10;72.10
43920;DHT22;29578;51.946;5.874;2023-04-15T03:47:14;8.10;72.10
43920;DHT22;29578;51.946;5.874;2023-04-15T03:49:39;8.10;72.20
43920;DHT22;29578;51.946;5.874;2023-04-15T03:52:05;8.10;72.20
43920;DHT22;29578;51.946;5.874;2023-04-15T03:54:31;8.00;72.20
43920;DHT22;29578;51.946;5.874;2023-04-15T03:56:57;8.10;72.30
43920;DHT22;29578;51.946;5.874;2023-04-15T03:59:22;8.10;72.40
43920;DHT22;29578;51.946;5.874;2023-04-15T04:01:48;8.00;72.40
43920;DHT22;29578;51.946;5.874;2023-04-15T04:04:14;7.90;72.40
43920;DHT22;29578;51.946;5.874;2023-04-15T04:06:40;8.00;72.50
43920;DHT22;29578;51.946;5.874;2023-04-15T04:09:05;8.00;72.60
43920;DHT22;29578;51.946;5.874;2023-04-15T04:11:31;7.90;72.60
43920;DHT22;29578;51.946;5.874;2023-04-15T04:13:57;8.00;72.70
43920;DHT22;29578;51.946;5.874;2023-04-15T04:16:23;7.90;72.70
43920;DHT22;29578;51.946;5.874;2023-04-15T04:18:49;7.90;72.80
43920;DHT22;29578;51.946;5.874;2023-04-15T04:21:14;7.90;72.80
43920;DHT22;29578;51.946;5.874;2023-04-15T04:23:40;7.90;72.90
43920;DHT22;29578;51.946;5.874;2023-04-15T04:26:06;7.90;73.10
43920;DHT22;29578;51.946;5.874;2023-04-15T04:28:31;7.90;73.10
43920;DHT22;29578;51.946;5.874;2023-04-15T04:30:57;7.80;73.10
43920;DHT22;29578;51.946;5.874;2023-04-15T04:33:23;7.90;73.20
43920;DHT22;29578;51.946;5.874;2023-04-15T04:35:49;7.80;73.20
43920;DHT22;29578;51.946;5.874;2023-04-15T04:38:15;7.80;73.30
43920;DHT22;29578;51.946;5.874;2023-04-15T04:40:40;7.90;73.40
43920;DHT22;29578;51.946;5.874;2023-04-15T04:43:06;7.70;73.40
43920;DHT22;29578;51.946;5.874;2023-04-15T04:45:32;7.80;73.60
43920;DHT22;29578;51.946;5.874;2023-04-15T04:47:57;7.70;73.60
43920;DHT22;29578;51.946;5.874;2023-04-15T04:50:23;7.80;73.60
43920;DHT22;29578;51.946;5.874;2023-04-15T04:52:48;7.70;73.60
43920;DHT22;29578;51.946;5.874;2023-04-15T04:55:14;7.70;73.70
43920;DHT22;29578;51.946;5.874;2023-04-15T04:57:40;7.70;73.70
43920;DHT22;29578;51.946;5.874;2023-04-15T05:00:06;7.70;73.80
43920;DHT22;29578;51.946;5.874;2023-04-15T05:02:33;7.70;73.80
43920;DHT22;29578;51.946;5.874;2023-04-15T05:04:59;7.70;73.80
43920;DHT22;29578;51.946;5.874;2023-04-15T05:07:25;7.70;74.00
43920;DHT22;29578;51.946;5.874;2023-04-15T05:09:50;7.60;74.00
43920;DHT22;29578;51.946;5.874;2023-04-15T05:12:16;7.60;74.00
43920;DHT22;29578;51.946;5.874;2023-04-15T05:14:43;7.60;74.00
43920;DHT22;29578;51.946;5.874;2023-04-15T05:17:08;7.60;74.10
43920;DHT22;29578;51.946;5.874;2023-04-15T05:19:34;7.60;74.10
43920;DHT22;29578;51.946;5.874;2023-04-15T05:22:00;7.60;74.10
43920;DHT22;29578;51.946;5.874;2023-04-15T05:24:25;7.60;74.20
43920;DHT22;29578;51.946;5.874;2023-04-15T05:26:51;7.60;74.10
43920;DHT22;29578;51.946;5.874;2023-04-15T05:29:17;7.60;74.20
43920;DHT22;29578;51.946;5.874;2023-04-15T05:31:43;7.60;74.20
43920;DHT22;29578;51.946;5.874;2023-04-15T05:34:08;7.60;74.20
43920;DHT22;29578;51.946;5.874;2023-04-15T05:36:36;7.70;74.90
43920;DHT22;29578;51.946;5.874;2023-04-15T05:39:01;7.70;74.30
43920;DHT22;29578;51.946;5.874;2023-04-15T05:41:28;7.60;74.20
43920;DHT22;29578;51.946;5.874;2023-04-15T05:43:54;7.70;74.30
43920;DHT22;29578;51.946;5.874;2023-04-15T05:46:20;7.70;75.00
43920;DHT22;29578;51.946;5.874;2023-04-15T05:48:46;7.70;74.40
43920;DHT22;29578;51.946;5.874;2023-04-15T05:51:12;7.80;74.40
43920;DHT22;29578;51.946;5.874;2023-04-15T05:53:38;7.80;74.40
43920;DHT22;29578;51.946;5.874;2023-04-15T05:56:05;7.90;74.40
43920;DHT22;29578;51.946;5.874;2023-04-15T05:58:31;8.00;74.30
43920;DHT22;29578;51.946;5.874;2023-04-15T06:00:57;8.00;74.30
43920;DHT22;29578;51.946;5.874;2023-04-15T06:03:23;8.10;74.20
43920;DHT22;29578;51.946;5.874;2023-04-15T06:05:48;8.20;74.10
43920;DHT22;29578;51.946;5.874;2023-04-15T06:08:14;8.30;74.00
43920;DHT22;29578;51.946;5.874;2023-04-15T06:10:40;8.40;73.90
43920;DHT22;29578;51.946;5.874;2023-04-15T06:13:06;8.50;73.80
43920;DHT22;29578;51.946;5.874;2023-04-15T06:15:32;8.60;73.70
43920;DHT22;29578;51.946;5.874;2023-04-15T06:17:58;8.60;73.60
43920;DHT22;29578;51.946;5.874;2023-04-15T06:20:24;8.70;73.60
43920;DHT22;29578;51.946;5.874;2023-04-15T06:22:49;8.70;73.50
43920;DHT22;29578;51.946;5.874;2023-04-15T06:25:15;8.80;73.60
43920;DHT22;29578;51.946;5.874;2023-04-15T06:27:42;8.90;74.30
43920;DHT22;29578;51.946;5.874;2023-04-15T06:30:08;8.90;73.60
43920;DHT22;29578;51.946;5.874;2023-04-15T06:32:33;9.00;73.60
43920;DHT22;29578;51.946;5.874;2023-04-15T06:34:59;9.10;73.60
43920;DHT22;29578;51.946;5.874;2023-04-15T06:37:25;9.10;73.60
43920;DHT22;29578;51.946;5.874;2023-04-15T06:39:51;9.10;73.60
43920;DHT22;29578;51.946;5.874;2023-04-15T06:42:17;9.20;73.60
43920;DHT22;29578;51.946;5.874;2023-04-15T06:44:42;9.20;73.60
43920;DHT22;29578;51.946;5.874;2023-04-15T06:47:08;9.20;73.60
43920;DHT22;29578;51.946;5.874;2023-04-15T06:49:34;9.40;73.70
43920;DHT22;29578;51.946;5.874;2023-04-15T06:52:00;9.40;73.70
43920;DHT22;29578;51.946;5.874;2023-04-15T06:54:26;9.30;73.60
43920;DHT22;29578;51.946;5.874;2023-04-15T06:56:52;9.40;73.70
43920;DHT22;29578;51.946;5.874;2023-04-15T06:59:17;9.40;73.70
43920;DHT22;29578;51.946;5.874;2023-04-15T07:01:43;9.40;73.70
43920;DHT22;29578;51.946;5.874;2023-04-15T07:04:09;9.40;73.80
43920;DHT22;29578;51.946;5.874;2023-04-15T07:06:35;9.40;73.80
43920;DHT22;29578;51.946;5.874;2023-04-15T07:09:01;9.40;73.70
43920;DHT22;29578;51.946;5.874;2023-04-15T07:11:27;9.30;73.70
43920;DHT22;29578;51.946;5.874;2023-04-15T07:13:53;9.50;73.80
43920;DHT22;29578;51.946;5.874;2023-04-15T07:16:19;9.50;73.80
43920;DHT22;29578;51.946;5.874;2023-04-15T07:18:44;9.50;73.90
43920;DHT22;29578;51.946;5.874;2023-04-15T07:21:10;9.50;73.90
43920;DHT22;29578;51.946;5.874;2023-04-15T07:23:36;9.50;73.90
43920;DHT22;29578;51.946;5.874;2023-04-15T07:26:02;9.50;74.00
43920;DHT22;29578;51.946;5.874;2023-04-15T07:28:28;9.50;74.10
43920;DHT22;29578;51.946;5.874;2023-04-15T07:30:54;9.50;74.10
43920;DHT22;29578;51.946;5.874;2023-04-15T07:33:20;9.50;74.20
43920;DHT22;29578;51.946;5.874;2023-04-15T07:35:46;9.50;74.20
43920;DHT22;29578;51.946;5.874;2023-04-15T07:38:11;9.50;74.20
43920;DHT22;29578;51.946;5.874;2023-04-15T07:40:38;9.50;74.20
43920;DHT22;29578;51.946;5.874;2023-04-15T07:43:04;9.50;74.30
43920;DHT22;29578;51.946;5.874;2023-04-15T07:45:30;9.50;74.30
43920;DHT22;29578;51.946;5.874;2023-04-15T07:47:56;9.50;74.30
43920;DHT22;29578;51.946;5.874;2023-04-15T07:50:22;9.50;74.20
43920;DHT22;29578;51.946;5.874;2023-04-15T07:52:49;9.50;74.20
43920;DHT22;29578;51.946;5.874;2023-04-15T07:55:16;9.60;74.20
43920;DHT22;29578;51.946;5.874;2023-04-15T07:57:44;9.50;74.00
43920;DHT22;29578;51.946;5.874;2023-04-15T08:00:12;9.70;74.10
43920;DHT22;29578;51.946;5.874;2023-04-15T08:02:38;9.70;73.90
43920;DHT22;29578;51.946;5.874;2023-04-15T08:05:04;9.90;73.90
43920;DHT22;29578;51.946;5.874;2023-04-15T08:07:29;10.00;73.80
43920;DHT22;29578;51.946;5.874;2023-04-15T08:09:55;9.90;73.60
43920;DHT22;29578;51.946;5.874;2023-04-15T08:12:21;10.00;73.60
43920;DHT22;29578;51.946;5.874;2023-04-15T08:21:13;10.50;73.20
43920;DHT22;29578;51.946;5.874;2023-04-15T08:23:39;10.60;73.50
43920;DHT22;29578;51.946;5.874;2023-04-15T08:26:05;10.70;73.30
43920;DHT22;29578;51.946;5.874;2023-04-15T08:28:31;10.70;73.10
43920;DHT22;29578;51.946;5.874;2023-04-15T08:30:56;10.80;73.00
43920;DHT22;29578;51.946;5.874;2023-04-15T08:33:22;10.80;72.80
43920;DHT22;29578;51.946;5.874;2023-04-15T08:35:48;11.00;72.70
43920;DHT22;29578;51.946;5.874;2023-04-15T08:38:14;11.10;72.50
43920;DHT22;29578;51.946;5.874;2023-04-15T08:40:42;11.10;72.30
43920;DHT22;29578;51.946;5.874;2023-04-15T08:43:10;11.10;72.30
43920;DHT22;29578;51.946;5.874;2023-04-15T08:45:38;11.20;72.20
43920;DHT22;29578;51.946;5.874;2023-04-15T08:48:04;11.20;72.10
43920;DHT22;29578;51.946;5.874;2023-04-15T08:50:31;11.30;71.80
43920;DHT22;29578;51.946;5.874;2023-04-15T08:52:59;11.40;72.00
43920;DHT22;29578;51.946;5.874;2023-04-15T08:55:29;11.50;71.80
43920;DHT22;29578;51.946;5.874;2023-04-15T08:57:58;11.50;71.60
43920;DHT22;29578;51.946;5.874;2023-04-15T09:00:24;11.60;71.50
43920;DHT22;29578;51.946;5.874;2023-04-15T09:02:51;11.60;71.50
43920;DHT22;29578;51.946;5.874;2023-04-15T09:05:17;11.70;71.50
43920;DHT22;29578;51.946;5.874;2023-04-15T09:07:42;11.60;71.60
43920;DHT22;29578;51.946;5.874;2023-04-15T09:10:09;11.50;71.60
43920;DHT22;29578;51.946;5.874;2023-04-15T09:12:35;11.60;71.70
43920;DHT22;29578;51.946;5.874;2023-04-15T09:15:02;11.70;71.70
43920;DHT22;29578;51.946;5.874;2023-04-15T09:17:28;11.70;71.60
43920;DHT22;29578;51.946;5.874;2023-04-15T09:20:13;11.70;71.40
43920;DHT22;29578;51.946;5.874;2023-04-15T09:22:41;11.80;71.30
43920;DHT22;29578;51.946;5.874;2023-04-15T09:25:24;11.90;71.50
43920;DHT22;29578;51.946;5.874;2023-04-15T09:27:54;11.90;71.30
43920;DHT22;29578;51.946;5.874;2023-04-15T09:30:21;12.00;71.20
43920;DHT22;29578;51.946;5.874;2023-04-15T09:32:57;12.10;71.20
43920;DHT22;29578;51.946;5.874;2023-04-15T09:35:24;12.20;71.10
43920;DHT22;29578;51.946;5.874;2023-04-15T09:37:51;12.20;71.00
43920;DHT22;29578;51.946;5.874;2023-04-15T09:40:34;12.30;70.80
43920;DHT22;29578;51.946;5.874;2023-04-15T09:43:01;12.40;70.70
43920;DHT22;29578;51.946;5.874;2023-04-15T09:45:28;12.40;70.60
43920;DHT22;29578;51.946;5.874;2023-04-15T09:47:53;12.40;70.60
43920;DHT22;29578;51.946;5.874;2023-04-15T09:50:20;12.50;70.60
43920;DHT22;29578;51.946;5.874;2023-04-15T09:52:46;12.50;70.50
43920;DHT22;29578;51.946;5.874;2023-04-15T09:55:14;12.60;70.50
43920;DHT22;29578;51.946;5.874;2023-04-15T09:57:40;12.70;70.50
43920;DHT22;29578;51.946;5.874;2023-04-15T10:00:07;12.80;70.40
43920;DHT22;29578;51.946;5.874;2023-04-15T10:02:36;12.80;70.20
43920;DHT22;29578;51.946;5.874;2023-04-15T10:05:02;12.80;70.10
43920;DHT22;29578;51.946;5.874;2023-04-15T10:07:28;12.90;70.10
43920;DHT22;29578;51.946;5.874;2023-04-15T10:09:54;12.90;70.10
43920;DHT22;29578;51.946;5.874;2023-04-15T10:12:21;12.90;70.30
43920;DHT22;29578;51.946;5.874;2023-04-15T10:14:51;13.00;70.20
43920;DHT22;29578;51.946;5.874;2023-04-15T10:17:17;13.10;70.10
43920;DHT22;29578;51.946;5.874;2023-04-15T10:19:46;13.20;70.60
43920;DHT22;29578;51.946;5.874;2023-04-15T10:22:13;13.30;69.80
43920;DHT22;29578;51.946;5.874;2023-04-15T10:24:39;13.30;69.70
43920;DHT22;29578;51.946;5.874;2023-04-15T10:27:05;13.40;69.80
43920;DHT22;29578;51.946;5.874;2023-04-15T10:29:31;13.50;69.70
43920;DHT22;29578;51.946;5.874;2023-04-15T10:31:58;13.60;69.30
43920;DHT22;29578;51.946;5.874;2023-04-15T10:34:25;13.80;69.20
43920;DHT22;29578;51.946;5.874;2023-04-15T10:36:54;13.90;68.90
43920;DHT22;29578;51.946;5.874;2023-04-15T10:39:38;14.00;68.60
43920;DHT22;29578;51.946;5.874;2023-04-15T10:42:07;14.20;68.60
43920;DHT22;29578;51.946;5.874;2023-04-15T10:44:35;14.20;68.50
43920;DHT22;29578;51.946;5.874;2023-04-15T10:47:06;14.30;68.40
43920;DHT22;29578;51.946;5.874;2023-04-15T10:49:43;14.50;68.20
43920;DHT22;29578;51.946;5.874;2023-04-15T10:52:09;14.50;67.80
43920;DHT22;29578;51.946;5.874;2023-04-15T10:54:36;14.60;68.00
43920;DHT22;29578;51.946;5.874;2023-04-15T10:57:08;14.50;67.90
43920;DHT22;29578;51.946;5.874;2023-04-15T10:59:36;14.50;68.10
43920;DHT22;29578;51.946;5.874;2023-04-15T11:02:05;14.50;68.40
43920;DHT22;29578;51.946;5.874;2023-04-15T11:05:00;14.40;68.50
43920;DHT22;29578;51.946;5.874;2023-04-15T11:07:43;14.40;68.50
43920;DHT22;29578;51.946;5.874;2023-04-15T11:13:20;14.50;68.30
43920;DHT22;29578;51.946;5.874;2023-04-15T11:15:47;14.60;68.10
43920;DHT22;29578;51.946;5.874;2023-04-15T11:18:17;14.60;68.20
43920;DHT22;29578;51.946;5.874;2023-04-15T11:20:48;14.60;67.90
43920;DHT22;29578;51.946;5.874;2023-04-15T11:23:18;14.50;68.10
43920;DHT22;29578;51.946;5.874;2023-04-15T11:25:44;14.50;69.20
43920;DHT22;29578;51.946;5.874;2023-04-15T11:28:11;14.60;68.30
43920;DHT22;29578;51.946;5.874;2023-04-15T11:30:37;14.60;67.90
43920;DHT22;29578;51.946;5.874;2023-04-15T11:33:06;14.70;67.90
43920;DHT22;29578;51.946;5.874;2023-04-15T11:35:33;14.70;67.70
43920;DHT22;29578;51.946;5.874;2023-04-15T11:38:14;14.90;67.60
43920;DHT22;29578;51.946;5.874;2023-04-15T11:40:42;15.00;67.20
43920;DHT22;29578;51.946;5.874;2023-04-15T11:43:10;15.20;66.80
43920;DHT22;29578;51.946;5.874;2023-04-15T11:45:43;15.10;66.80
43920;DHT22;29578;51.946;5.874;2023-04-15T11:48:12;15.10;67.00
43920;DHT22;29578;51.946;5.874;2023-04-15T11:50:39;15.00;67.00
43920;DHT22;29578;51.946;5.874;2023-04-15T11:53:08;15.10;67.10
43920;DHT22;29578;51.946;5.874;2023-04-15T11:55:42;14.90;66.80
43920;DHT22;29578;51.946;5.874;2023-04-15T11:58:12;15.10;66.90
43920;DHT22;29578;51.946;5.874;2023-04-15T12:00:40;15.20;66.60
43920;DHT22;29578;51.946;5.874;2023-04-15T12:03:21;15.20;66.30
43920;DHT22;29578;51.946;5.874;2023-04-15T12:06:02;15.20;66.00
43920;DHT22;29578;51.946;5.874;2023-04-15T12:11:04;15.20;66.20
43920;DHT22;29578;51.946;5.874;2023-04-15T12:13:29;15.10;66.30
43920;DHT22;29578;51.946;5.874;2023-04-15T12:15:55;14.90;66.60
43920;DHT22;29578;51.946;5.874;2023-04-15T12:18:24;14.90;66.80
43920;DHT22;29578;51.946;5.874;2023-04-15T12:20:50;14.90;66.50
43920;DHT22;29578;51.946;5.874;2023-04-15T12:23:18;14.90;66.30
43920;DHT22;29578;51.946;5.874;2023-04-15T12:25:50;15.00;66.50
43920;DHT22;29578;51.946;5.874;2023-04-15T12:28:16;15.20;66.30
43920;DHT22;29578;51.946;5.874;2023-04-15T12:30:49;15.40;65.70
43920;DHT22;29578;51.946;5.874;2023-04-15T12:33:16;15.60;65.30
43920;DHT22;29578;51.946;5.874;2023-04-15T12:35:42;15.60;64.90
43920;DHT22;29578;51.946;5.874;2023-04-15T12:38:07;15.40;65.10
43920;DHT22;29578;51.946;5.874;2023-04-15T12:40:35;15.40;65.60
43920;DHT22;29578;51.946;5.874;2023-04-15T12:43:00;15.40;65.70
43920;DHT22;29578;51.946;5.874;2023-04-15T12:45:26;15.60;65.70
43920;DHT22;29578;51.946;5.874;2023-04-15T12:47:52;15.70;65.40
43920;DHT22;29578;51.946;5.874;2023-04-15T12:50:17;15.70;65.20
43920;DHT22;29578;51.946;5.874;2023-04-15T12:52:43;15.60;65.10
43920;DHT22;29578;51.946;5.874;2023-04-15T12:55:08;15.50;65.30
43920;DHT22;29578;51.946;5.874;2023-04-15T12:57:34;15.30;65.60
43920;DHT22;29578;51.946;5.874;2023-04-15T13:00:00;15.30;65.90
43920;DHT22;29578;51.946;5.874;2023-04-15T13:02:26;15.10;66.20
43920;DHT22;29578;51.946;5.874;2023-04-15T13:04:53;15.00;66.40
43920;DHT22;29578;51.946;5.874;2023-04-15T13:07:18;15.10;66.50
43920;DHT22;29578;51.946;5.874;2023-04-15T13:09:44;15.10;66.40
43920;DHT22;29578;51.946;5.874;2023-04-15T13:12:10;15.20;66.00
43920;DHT22;29578;51.946;5.874;2023-04-15T13:14:38;15.20;65.80
43920;DHT22;29578;51.946;5.874;2023-04-15T13:17:03;15.00;65.90
43920;DHT22;29578;51.946;5.874;2023-04-15T13:19:34;14.90;66.10
43920;DHT22;29578;51.946;5.874;2023-04-15T13:22:01;14.90;66.00
43920;DHT22;29578;51.946;5.874;2023-04-15T13:24:27;15.00;66.90
43920;DHT22;29578;51.946;5.874;2023-04-15T13:26:53;14.70;66.20
43920;DHT22;29578;51.946;5.874;2023-04-15T13:29:19;14.70;66.20
43920;DHT22;29578;51.946;5.874;2023-04-15T13:31:44;14.70;66.20
43920;DHT22;29578;51.946;5.874;2023-04-15T13:34:10;14.70;66.20
43920;DHT22;29578;51.946;5.874;2023-04-15T13:36:36;14.80;66.10
43920;DHT22;29578;51.946;5.874;2023-04-15T13:39:01;14.70;66.20
43920;DHT22;29578;51.946;5.874;2023-04-15T13:41:27;14.60;66.30
43920;DHT22;29578;51.946;5.874;2023-04-15T13:43:53;14.60;66.40
43920;DHT22;29578;51.946;5.874;2023-04-15T13:46:19;14.60;66.30
43920;DHT22;29578;51.946;5.874;2023-04-15T13:48:44;14.50;66.40
43920;DHT22;29578;51.946;5.874;2023-04-15T13:51:10;14.60;66.20
43920;DHT22;29578;51.946;5.874;2023-04-15T13:53:36;14.70;66.20
43920;DHT22;29578;51.946;5.874;2023-04-15T13:56:01;14.80;66.10
43920;DHT22;29578;51.946;5.874;2023-04-15T13:58:27;14.80;65.70
43920;DHT22;29578;51.946;5.874;2023-04-15T14:00:52;14.80;65.70
43920;DHT22;29578;51.946;5.874;2023-04-15T14:03:18;14.70;65.80
43920;DHT22;29578;51.946;5.874;2023-04-15T14:05:44;14.60;66.00
43920;DHT22;29578;51.946;5.874;2023-04-15T14:08:09;14.70;66.10
43920;DHT22;29578;51.946;5.874;2023-04-15T14:10:35;14.70;65.90
43920;DHT22;29578;51.946;5.874;2023-04-15T14:13:01;14.70;66.00
43920;DHT22;29578;51.946;5.874;2023-04-15T14:15:26;14.50;66.00
43920;DHT22;29578;51.946;5.874;2023-04-15T14:17:52;14.30;66.10
43920;DHT22;29578;51.946;5.874;2023-04-15T14:20:18;14.30;66.50
43920;DHT22;29578;51.946;5.874;2023-04-15T14:22:43;14.20;67.40
43920;DHT22;29578;51.946;5.874;2023-04-15T14:25:09;14.20;66.60
43920;DHT22;29578;51.946;5.874;2023-04-15T14:27:34;13.80;66.80
43920;DHT22;29578;51.946;5.874;2023-04-15T14:30:00;13.80;67.20
43920;DHT22;29578;51.946;5.874;2023-04-15T14:32:26;13.70;67.60
43920;DHT22;29578;51.946;5.874;2023-04-15T14:34:51;13.50;67.70
43920;DHT22;29578;51.946;5.874;2023-04-15T14:37:17;13.40;68.00
43920;DHT22;29578;51.946;5.874;2023-04-15T14:39:43;13.40;68.10
43920;DHT22;29578;51.946;5.874;2023-04-15T14:42:08;13.40;68.20
43920;DHT22;29578;51.946;5.874;2023-04-15T14:44:34;13.20;68.10
43920;DHT22;29578;51.946;5.874;2023-04-15T14:46:59;13.10;68.40
43920;DHT22;29578;51.946;5.874;2023-04-15T14:49:25;13.00;68.60
43920;DHT22;29578;51.946;5.874;2023-04-15T14:51:51;12.90;68.70
43920;DHT22;29578;51.946;5.874;2023-04-15T14:54:16;13.00;69.30
43920;DHT22;29578;51.946;5.874;2023-04-15T14:56:42;12.90;68.80
43920;DHT22;29578;51.946;5.874;2023-04-15T14:59:07;12.80;68.80
43920;DHT22;29578;51.946;5.874;2023-04-15T15:01:33;12.80;69.00
43920;DHT22;29578;51.946;5.874;2023-04-15T15:03:59;12.70;69.10
43920;DHT22;29578;51.946;5.874;2023-04-15T15:06:25;12.60;69.10
43920;DHT22;29578;51.946;5.874;2023-04-15T15:08:51;12.60;69.20
43920;DHT22;29578;51.946;5.874;2023-04-15T15:11:16;12.60;69.30
43920;DHT22;29578;51.946;5.874;2023-04-15T15:13:42;12.50;69.30
43920;DHT22;29578;51.946;5.874;2023-04-15T15:16:08;12.40;69.10
43920;DHT22;29578;51.946;5.874;2023-04-15T15:18:34;12.40;69.30
43920;DHT22;29578;51.946;5.874;2023-04-15T15:21:00;12.30;69.30
43920;DHT22;29578;51.946;5.874;2023-04-15T15:23:26;12.30;69.50
43920;DHT22;29578;51.946;5.874;2023-04-15T15:25:51;12.30;69.50
43920;DHT22;29578;51.946;5.874;2023-04-15T15:28:17;12.30;69.30
43920;DHT22;29578;51.946;5.874;2023-04-15T15:30:43;12.30;69.30
43920;DHT22;29578;51.946;5.874;2023-04-15T15:33:08;12.30;69.40
43920;DHT22;29578;51.946;5.874;2023-04-15T15:35:34;12.30;69.50
43920;DHT22;29578;51.946;5.874;2023-04-15T15:38:00;12.30;69.50
43920;DHT22;29578;51.946;5.874;2023-04-15T15:40:25;12.20;69.30
43920;DHT22;29578;51.946;5.874;2023-04-15T15:42:51;12.20;69.50
43920;DHT22;29578;51.946;5.874;2023-04-15T15:45:17;12.10;69.60
43920;DHT22;29578;51.946;5.874;2023-04-15T15:47:43;12.00;69.80